CMB854 Details

Departure: RAFO Thumrait (OOTH)
Arrival: Bahrain International Airport (OBBI)
Route: GOBRO UT100 KUTNA UL564 BAT UL564 DOH R659 EMISA B457 DENVO DENVO1
Notes: USTRANSCOM CONTRACT FLIGHT


Current Weather Information
No METAR available for OOTH.
OBBI 232230Z 27006KT CAVOK 31/20 Q1006 NOSIG